Ace, Texas
Current Conditions -  °F | °C
As of 5:35 PM on Thursday 18 Dec 2014 (Local Time) from K6R3 Reporting Station
Overcast Overcast  
Wind Chill: 16°   Ceiling: 1400
Heat Index: 16°   Visibility: 10mi
Dew Point: 15°   Wind: 3mph
Humidity: 91%   Direction: 40°NE
Pressure: 30.08"   Gusts: NA
Location:  30.54°N, 94.82°W
Report Text: K6R3 182335Z AUTO 04003KT 10SM OVC014 17/15 A3008 RMK AO2 T01650150
Loading
Personal Weather Stations






























Interactive Weather Map New forecast layout! Learn more

10-Day Weather Forecast

Advertisements
Track Severe Weather on mobile